Time;durP1;ratioP1;P1;durP2;ratioP2;P2;SDS_P1;SDS_P2;PMS_P1;PMS_P2;Temp;Humidity;BMP_temperature;BMP_pressure;BME280_temperature;BME280_humidity;BME280_pressure;Samples;Min_cycle;Max_cycle;Signal;HPM_P1;HPM_P2
2024/02/16 00:02:46;;;;;;;5.25;3.60;;;10.20;99.90;;;;;;6063473;23;20213;-81
2024/02/16 00:05:35;;;;;;;6.68;3.45;;;10.10;99.90;;;;;;6058766;23;20370;-80
2024/02/16 00:08:23;;;;;;;6.05;3.45;;;10.10;99.90;;;;;;6059519;23;20082;-81
2024/02/16 00:11:12;;;;;;;6.07;3.58;;;10.20;99.90;;;;;;6057282;23;20265;-81
2024/02/16 00:14:00;;;;;;;4.30;3.03;;;10.10;99.90;;;;;;6077496;23;20150;-79
2024/02/16 00:16:48;;;;;;;6.55;3.75;;;10.10;99.90;;;;;;6081350;23;20031;-79
2024/02/16 00:19:36;;;;;;;5.95;3.35;;;10.10;99.90;;;;;;6068986;23;20023;-81
2024/02/16 00:22:24;;;;;;;8.15;3.80;;;10.10;99.90;;;;;;6056879;23;20068;-78
2024/02/16 00:25:12;;;;;;;6.68;2.97;;;10.20;99.90;;;;;;6065419;23;20034;-79
2024/02/16 00:28:00;;;;;;;4.60;2.97;;;10.20;99.90;;;;;;6059274;23;20030;-82
2024/02/16 00:30:49;;;;;;;6.78;3.20;;;10.20;99.90;;;;;;6061898;23;20037;-79
2024/02/16 00:33:36;;;;;;;5.43;3.10;;;10.30;99.90;;;;;;6067780;23;20054;-79
2024/02/16 00:36:27;;;;;;;7.43;3.15;;;10.30;99.90;;;;;;6052943;23;20031;-80
2024/02/16 00:39:15;;;;;;;5.05;3.10;;;10.30;99.90;;;;;;6047555;23;20034;-79
2024/02/16 00:42:06;;;;;;;3.80;2.65;;;10.30;99.90;;;;;;6067312;23;20030;-81
2024/02/16 00:44:53;;;;;;;4.57;3.13;;;10.40;99.90;;;;;;6041289;23;20027;-81
2024/02/16 00:47:41;;;;;;;5.28;2.55;;;10.40;99.90;;;;;;6058395;23;20027;-80
2024/02/16 00:50:30;;;;;;;6.45;3.85;;;10.40;99.90;;;;;;6059879;23;20057;-82
2024/02/16 00:53:20;;;;;;;4.30;2.57;;;10.40;99.90;;;;;;6052633;23;20031;-81
2024/02/16 00:56:08;;;;;;;7.07;3.35;;;10.40;99.90;;;;;;6037792;23;20247;-82
2024/02/16 00:58:56;;;;;;;6.00;3.05;;;10.30;99.90;;;;;;6076626;23;20078;-80
2024/02/16 01:01:45;;;;;;;6.50;3.13;;;10.30;99.90;;;;;;6068227;23;20500;-80
2024/02/16 01:04:33;;;;;;;7.22;3.03;;;10.40;99.90;;;;;;6039281;23;20031;-82
2024/02/16 01:07:22;;;;;;;3.67;2.88;;;10.40;99.90;;;;;;6059310;23;20029;-81
2024/02/16 01:10:10;;;;;;;4.38;2.53;;;10.50;99.90;;;;;;6059934;23;20075;-80
2024/02/16 01:12:57;;;;;;;5.07;2.80;;;10.50;99.90;;;;;;6036601;23;20686;-83
2024/02/16 01:15:45;;;;;;;6.05;3.40;;;10.50;99.90;;;;;;6070286;23;20082;-81
2024/02/16 01:18:36;;;;;;;4.63;2.75;;;10.50;99.90;;;;;;6058161;23;20071;-83
2024/02/16 01:21:25;;;;;;;5.57;2.97;;;10.60;99.90;;;;;;6062416;23;20071;-81
2024/02/16 01:24:14;;;;;;;6.95;3.00;;;10.50;99.90;;;;;;6068007;23;20034;-83
2024/02/16 01:27:01;;;;;;;4.18;2.70;;;10.60;99.90;;;;;;6061931;23;20191;-82
2024/02/16 01:29:49;;;;;;;5.57;2.60;;;10.50;99.90;;;;;;6057816;23;20041;-84
2024/02/16 01:32:37;;;;;;;5.32;2.78;;;10.60;99.90;;;;;;6057464;23;20392;-82
2024/02/16 01:35:25;;;;;;;7.90;3.33;;;10.60;99.90;;;;;;6059024;23;20026;-78
2024/02/16 01:38:14;;;;;;;5.65;2.65;;;10.60;99.90;;;;;;6060221;23;20027;-80
2024/02/16 01:41:01;;;;;;;3.55;2.55;;;10.60;99.90;;;;;;6038463;23;20346;-80
2024/02/16 01:43:53;;;;;;;7.22;3.05;;;10.50;99.90;;;;;;6036329;23;20026;-80
2024/02/16 01:46:40;;;;;;;6.53;2.80;;;10.40;99.90;;;;;;6037244;23;20019;-81
2024/02/16 01:49:28;;;;;;;4.50;2.67;;;10.40;99.90;;;;;;6037690;23;20529;-81
2024/02/16 01:52:16;;;;;;;4.38;2.70;;;10.40;99.90;;;;;;6057062;23;20525;-82
2024/02/16 01:55:08;;;;;;;5.00;2.60;;;10.40;99.90;;;;;;6036438;23;20031;-81
2024/02/16 01:58:00;;;;;;;4.35;2.60;;;10.40;99.90;;;;;;6055337;23;20534;-83
2024/02/16 02:00:48;;;;;;;6.07;3.15;;;10.40;99.90;;;;;;6064418;23;20365;-82
2024/02/16 02:03:35;;;;;;;4.53;2.80;;;10.50;99.90;;;;;;6075760;23;20034;-79
2024/02/16 02:06:23;;;;;;;3.88;2.40;;;10.50;99.90;;;;;;6063643;23;20462;-80
2024/02/16 02:09:10;;;;;;;4.75;2.70;;;10.60;99.90;;;;;;6080937;23;20038;-79
2024/02/16 02:11:58;;;;;;;5.72;2.78;;;10.50;99.90;;;;;;6071744;23;20038;-82
2024/02/16 02:14:46;;;;;;;4.35;2.45;;;10.50;99.90;;;;;;6058704;23;20031;-80
2024/02/16 02:17:34;;;;;;;4.07;2.60;;;10.50;99.90;;;;;;6059033;23;20082;-82
2024/02/16 02:20:22;;;;;;;3.78;2.72;;;10.50;99.90;;;;;;6039784;23;20041;-83
2024/02/16 02:23:09;;;;;;;3.67;2.58;;;10.50;99.90;;;;;;6058556;23;20030;-81
2024/02/16 02:25:57;;;;;;;7.55;3.28;;;10.50;99.90;;;;;;6038431;23;20023;-80
2024/02/16 02:28:45;;;;;;;4.95;2.72;;;10.50;99.90;;;;;;6057770;23;20097;-79
2024/02/16 02:31:33;;;;;;;3.80;2.83;;;10.50;99.90;;;;;;6055520;23;20110;-80
2024/02/16 02:34:20;;;;;;;7.45;3.10;;;10.40;99.90;;;;;;6038890;23;20027;-81
2024/02/16 02:37:08;;;;;;;6.03;3.00;;;10.40;99.90;;;;;;6065883;23;20030;-83
2024/02/16 02:39:56;;;;;;;6.55;3.15;;;10.40;99.90;;;;;;6071690;23;20113;-80
2024/02/16 02:42:44;;;;;;;6.55;2.50;;;10.40;99.90;;;;;;6038122;23;20113;-80
2024/02/16 02:45:32;;;;;;;5.93;2.90;;;10.40;99.90;;;;;;6070153;23;20026;-82
2024/02/16 02:48:22;;;;;;;3.90;2.78;;;10.40;99.90;;;;;;6073213;23;20035;-82
2024/02/16 02:51:09;;;;;;;4.43;2.63;;;10.40;99.90;;;;;;6065585;23;20069;-79
2024/02/16 02:53:57;;;;;;;7.93;3.10;;;10.40;99.90;;;;;;6068919;23;20027;-80
2024/02/16 02:56:45;;;;;;;5.10;2.30;;;10.40;99.90;;;;;;6067982;23;20026;-81
2024/02/16 02:59:37;;;;;;;5.65;2.55;;;10.40;99.90;;;;;;6039359;23;20041;-81
2024/02/16 03:02:26;;;;;;;4.35;3.15;;;10.40;99.90;;;;;;6059386;23;20033;-80
2024/02/16 03:05:15;;;;;;;8.05;3.20;;;10.50;99.90;;;;;;6040092;23;20027;-79
2024/02/16 03:08:02;;;;;;;3.47;2.55;;;10.50;99.90;;;;;;6058880;23;20458;-80
2024/02/16 03:10:50;;;;;;;3.67;2.60;;;10.50;99.90;;;;;;6056337;23;20027;-81
2024/02/16 03:13:38;;;;;;;3.72;2.78;;;10.40;99.90;;;;;;6061240;23;20027;-80
2024/02/16 03:16:26;;;;;;;6.50;2.72;;;10.40;99.90;;;;;;6058790;23;20047;-78
2024/02/16 03:19:14;;;;;;;5.70;2.63;;;10.30;99.90;;;;;;6063308;23;20027;-79
2024/02/16 03:22:04;;;;;;;7.57;3.72;;;10.30;99.90;;;;;;6058367;23;20022;-78
2024/02/16 03:24:51;;;;;;;6.35;3.20;;;10.40;99.90;;;;;;6059916;23;20086;-80
2024/02/16 03:27:39;;;;;;;5.10;3.17;;;10.50;99.90;;;;;;6070375;23;20041;-82
2024/02/16 03:30:27;;;;;;;5.13;3.00;;;10.50;99.90;;;;;;6073688;23;20023;-79
2024/02/16 03:33:14;;;;;;;6.40;2.97;;;10.50;99.90;;;;;;6043309;23;20035;-80
2024/02/16 03:36:05;;;;;;;4.72;3.67;;;10.40;99.90;;;;;;6050874;23;20106;-81
2024/02/16 03:38:52;;;;;;;5.93;3.47;;;10.30;99.90;;;;;;6060411;23;20031;-81
2024/02/16 03:41:40;;;;;;;6.05;3.35;;;10.30;99.90;;;;;;6070170;23;20031;-81
2024/02/16 03:44:29;;;;;;;7.75;4.10;;;10.20;99.90;;;;;;6077854;23;20018;-80
2024/02/16 03:47:17;;;;;;;5.57;3.22;;;10.10;99.90;;;;;;6082095;23;20114;-79
2024/02/16 03:50:06;;;;;;;4.65;3.42;;;10.10;99.90;;;;;;6048267;23;20105;-81
2024/02/16 03:52:54;;;;;;;7.20;3.58;;;10.00;99.90;;;;;;6058800;23;20038;-80
2024/02/16 03:55:41;;;;;;;8.27;3.90;;;10.00;99.90;;;;;;6057700;23;20031;-79
2024/02/16 03:58:29;;;;;;;8.77;3.80;;;10.00;99.90;;;;;;6058145;23;20045;-80
2024/02/16 04:01:17;;;;;;;6.57;3.85;;;10.00;99.90;;;;;;6038937;23;20027;-79
2024/02/16 04:04:04;;;;;;;5.30;3.75;;;10.00;99.90;;;;;;6059643;23;20069;-77
2024/02/16 04:06:52;;;;;;;5.40;3.38;;;10.00;99.90;;;;;;6069058;23;20623;-81
2024/02/16 04:09:40;;;;;;;6.68;3.47;;;10.00;99.90;;;;;;6060524;23;20075;-80
2024/02/16 04:12:28;;;;;;;7.55;3.30;;;10.00;99.90;;;;;;6063669;23;20062;-78
2024/02/16 04:15:16;;;;;;;5.88;3.85;;;10.00;99.90;;;;;;6071159;23;20054;-82
2024/02/16 04:18:04;;;;;;;7.45;4.07;;;9.90;99.90;;;;;;6063243;23;20042;-80
2024/02/16 04:20:52;;;;;;;6.53;3.97;;;9.80;99.90;;;;;;6047307;23;20061;-78
2024/02/16 04:23:41;;;;;;;6.13;3.70;;;9.70;99.90;;;;;;6060533;23;20458;-81
2024/02/16 04:26:29;;;;;;;6.95;3.90;;;9.60;99.90;;;;;;6057528;23;20026;-79
2024/02/16 04:29:16;;;;;;;6.97;3.97;;;9.50;99.90;;;;;;6058445;23;20082;-78
2024/02/16 04:32:05;;;;;;;7.47;4.00;;;9.50;99.90;;;;;;6057276;23;20030;-82
2024/02/16 04:34:52;;;;;;;5.13;4.10;;;9.50;99.90;;;;;;6057384;23;20031;-79
2024/02/16 04:37:40;;;;;;;6.13;3.60;;;9.50;99.90;;;;;;6056304;23;20069;-81
2024/02/16 04:40:32;;;;;;;5.50;3.90;;;9.50;99.90;;;;;;6054184;23;20576;-82
2024/02/16 04:43:21;;;;;;;6.07;3.55;;;9.60;99.90;;;;;;6064335;23;20025;-81
2024/02/16 04:46:15;;;;;;;8.82;3.80;;;9.60;99.90;;;;;;6035878;23;20398;-80
2024/02/16 04:49:02;;;;;;;6.40;3.67;;;9.60;99.90;;;;;;6056124;23;20644;-83
2024/02/16 04:51:50;;;;;;;5.68;3.67;;;9.60;99.90;;;;;;6063313;23;20466;-80
2024/02/16 04:54:40;;;;;;;7.07;3.72;;;9.60;99.90;;;;;;6066421;23;20137;-82
2024/02/16 04:57:31;;;;;;;5.97;3.80;;;9.50;99.90;;;;;;6051084;23;20030;-79
2024/02/16 05:00:19;;;;;;;7.85;3.40;;;9.50;99.90;;;;;;6068374;23;20054;-81
2024/02/16 05:03:08;;;;;;;5.38;3.45;;;9.50;99.90;;;;;;6065622;23;20027;-82
2024/02/16 05:05:56;;;;;;;4.50;3.47;;;9.50;99.90;;;;;;6057381;23;20097;-82
2024/02/16 05:08:46;;;;;;;8.75;3.80;;;9.50;99.90;;;;;;6058615;23;20023;-81
2024/02/16 05:11:33;;;;;;;5.90;3.83;;;9.60;99.90;;;;;;6060271;23;20035;-80
2024/02/16 05:14:20;;;;;;;6.43;3.33;;;9.60;99.90;;;;;;6060232;23;20030;-81
2024/02/16 05:17:08;;;;;;;5.70;3.45;;;9.60;99.90;;;;;;6057192;23;20038;-82
2024/02/16 05:19:56;;;;;;;7.68;3.45;;;9.60;99.90;;;;;;6055295;23;20082;-80
2024/02/16 05:22:48;;;;;;;6.85;3.50;;;9.50;99.90;;;;;;6037600;23;20031;-82
2024/02/16 05:25:37;;;;;;;4.78;3.50;;;9.50;99.90;;;;;;6038305;23;20027;-81
2024/02/16 05:28:26;;;;;;;6.05;3.85;;;9.60;99.90;;;;;;6058558;23;20105;-81
2024/02/16 05:31:17;;;;;;;4.68;3.30;;;9.60;99.90;;;;;;6036820;23;20038;-80
2024/02/16 05:34:04;;;;;;;4.97;3.70;;;9.60;99.90;;;;;;6036744;23;20502;-80
2024/02/16 05:36:52;;;;;;;6.57;3.28;;;9.60;99.90;;;;;;6055700;23;20137;-80
2024/02/16 05:39:56;;;;;;;6.00;3.88;;;9.60;99.90;;;;;;6067674;23;20034;-78
2024/02/16 05:42:49;;;;;;;5.15;3.30;;;9.60;99.90;;;;;;6067188;23;20054;-79
2024/02/16 05:45:38;;;;;;;4.40;3.25;;;9.60;99.90;;;;;;6054482;23;20357;-78
2024/02/16 05:48:27;;;;;;;5.38;2.97;;;9.60;99.90;;;;;;6046220;23;20418;-78
2024/02/16 05:51:15;;;;;;;4.03;3.03;;;9.60;99.90;;;;;;6080564;23;20026;-80
2024/02/16 05:54:07;;;;;;;8.70;3.20;;;9.50;99.90;;;;;;6074663;23;20027;-76
2024/02/16 05:56:55;;;;;;;6.53;3.15;;;9.50;99.90;;;;;;6074221;23;20030;-78
2024/02/16 05:59:43;;;;;;;4.65;2.80;;;9.40;99.90;;;;;;6046146;23;20023;-79
2024/02/16 06:02:34;;;;;;;6.25;3.38;;;9.40;99.90;;;;;;6054559;23;20454;-80
2024/02/16 06:05:22;;;;;;;4.43;2.83;;;9.40;99.90;;;;;;6058206;23;20546;-83
2024/02/16 06:08:13;;;;;;;9.27;3.28;;;9.40;99.90;;;;;;6056667;23;20347;-81
2024/02/16 06:11:04;;;;;;;6.65;3.17;;;9.40;99.90;;;;;;6057023;23;20035;-81
2024/02/16 06:13:51;;;;;;;4.20;3.33;;;9.30;99.90;;;;;;6034333;23;20606;-84
2024/02/16 06:16:42;;;;;;;8.43;3.88;;;9.30;99.90;;;;;;6036593;23;20035;-81
2024/02/16 06:19:30;;;;;;;9.88;3.83;;;9.40;99.90;;;;;;6036219;23;20346;-82
2024/02/16 06:22:19;;;;;;;5.88;3.50;;;9.40;99.90;;;;;;6056489;23;20514;-83
2024/02/16 06:25:11;;;;;;;6.97;3.70;;;9.40;99.90;;;;;;6057416;23;20569;-80
2024/02/16 06:27:58;;;;;;;10.77;3.65;;;9.40;99.90;;;;;;6037157;23;20086;-81
2024/02/16 06:30:46;;;;;;;7.72;3.88;;;9.50;99.90;;;;;;6049409;23;20022;-77
2024/02/16 06:33:36;;;;;;;4.50;3.20;;;9.50;99.90;;;;;;6060830;23;20136;-77
2024/02/16 06:36:24;;;;;;;3.80;2.83;;;9.60;99.90;;;;;;6052177;23;20455;-75
2024/02/16 06:39:18;;;;;;;6.30;3.03;;;9.70;99.90;;;;;;6086123;23;20025;-79
2024/02/16 06:42:06;;;;;;;7.13;3.60;;;9.80;99.90;;;;;;6052249;23;20115;-83
2024/02/16 06:44:54;;;;;;;9.10;3.53;;;9.80;99.90;;;;;;6057946;23;20054;-83
2024/02/16 06:47:41;;;;;;;5.10;2.85;;;9.80;99.90;;;;;;6056270;23;20026;-80
2024/02/16 06:50:29;;;;;;;5.65;3.00;;;9.80;99.90;;;;;;6035830;23;20023;-81
2024/02/16 06:53:17;;;;;;;3.30;2.60;;;9.90;99.90;;;;;;6068158;23;20027;-81
2024/02/16 06:56:04;;;;;;;6.68;3.20;;;9.90;99.90;;;;;;6039778;23;20126;-80
2024/02/16 06:58:53;;;;;;;5.15;2.55;;;10.00;99.90;;;;;;6057872;23;20026;-79
2024/02/16 07:01:41;;;;;;;6.38;3.10;;;10.00;99.90;;;;;;6059154;23;20370;-78
2024/02/16 07:04:29;;;;;;;3.72;2.30;;;10.10;99.90;;;;;;6057728;23;20054;-81
2024/02/16 07:07:18;;;;;;;4.50;2.67;;;10.20;99.90;;;;;;6057462;23;20639;-81
2024/02/16 07:10:07;;;;;;;15.13;7.55;;;10.20;99.90;;;;;;6037237;23;20042;-80
2024/02/16 07:12:54;;;;;;;5.00;2.70;;;10.20;99.90;;;;;;6063932;23;20034;-80
2024/02/16 07:15:42;;;;;;;3.97;2.80;;;10.20;99.90;;;;;;6089568;23;20059;-78
2024/02/16 07:18:30;;;;;;;5.88;2.78;;;10.30;99.90;;;;;;6072007;23;20368;-80
2024/02/16 07:21:22;;;;;;;3.47;2.70;;;10.40;99.90;;;;;;6070679;23;20038;-81
2024/02/16 07:24:10;;;;;;;6.78;3.25;;;10.50;99.90;;;;;;6068607;23;20037;-80
2024/02/16 07:27:11;;;;;;;3.88;2.65;;;10.60;99.90;;;;;;6058329;23;20031;-81
2024/02/16 07:29:59;;;;;;;3.65;2.70;;;10.60;99.90;;;;;;6034629;23;20363;-78
2024/02/16 07:32:52;;;;;;;7.28;2.53;;;10.60;99.90;;;;;;6054815;23;20030;-78
2024/02/16 07:35:40;;;;;;;5.22;2.88;;;10.70;99.90;;;;;;6033759;23;20113;-78
2024/02/16 07:38:28;;;;;;;4.82;2.85;;;10.90;99.90;;;;;;6054775;23;20366;-78
2024/02/16 07:41:17;;;;;;;5.18;3.15;;;11.20;99.90;;;;;;6033215;23;20030;-79
2024/02/16 07:44:05;;;;;;;5.22;3.15;;;11.50;99.90;;;;;;6057071;23;20038;-80
2024/02/16 07:46:52;;;;;;;7.75;3.17;;;11.60;99.90;;;;;;6053512;23;20023;-77
2024/02/16 07:49:40;;;;;;;4.10;2.67;;;11.80;99.90;;;;;;6054249;23;20050;-79
2024/02/16 07:52:30;;;;;;;6.20;3.35;;;11.80;99.90;;;;;;6052476;23;20138;-79
2024/02/16 07:55:18;;;;;;;4.97;2.97;;;11.70;99.90;;;;;;6036234;23;20054;-81
2024/02/16 07:58:09;;;;;;;8.02;2.90;;;11.60;99.90;;;;;;6057058;23;20790;-83
2024/02/16 08:00:57;;;;;;;6.30;2.80;;;11.80;99.90;;;;;;6064446;23;20030;-77
2024/02/16 08:03:46;;;;;;;5.22;2.97;;;11.90;99.90;;;;;;6060429;23;20133;-78
2024/02/16 08:06:33;;;;;;;4.45;2.50;;;12.00;99.90;;;;;;6065702;23;20086;-77
2024/02/16 08:09:22;;;;;;;6.00;2.50;;;12.20;99.90;;;;;;6083297;23;20026;-79
2024/02/16 08:12:10;;;;;;;7.45;3.22;;;12.50;99.90;;;;;;6063772;23;20041;-77
2024/02/16 08:14:58;;;;;;;4.72;2.67;;;12.60;99.90;;;;;;6056294;23;20026;-77
2024/02/16 08:17:47;;;;;;;5.85;2.75;;;12.70;99.90;;;;;;6060243;23;20030;-77
2024/02/16 08:20:36;;;;;;;3.90;2.38;;;12.80;99.90;;;;;;6063721;23;20034;-77
2024/02/16 08:23:23;;;;;;;5.13;2.90;;;13.00;99.90;;;;;;6057059;23;20366;-78
2024/02/16 08:26:12;;;;;;;6.05;3.67;;;13.20;99.90;;;;;;6018424;23;20038;-77
2024/02/16 08:28:59;;;;;;;5.57;2.70;;;13.30;99.90;;;;;;6057241;23;20027;-81
2024/02/16 08:31:51;;;;;;;6.90;2.10;;;13.50;99.90;;;;;;6055481;23;20458;-79
2024/02/16 08:34:38;;;;;;;5.47;2.40;;;13.50;97.80;;;;;;6058622;23;20038;-79
2024/02/16 08:37:28;;;;;;;5.30;2.20;;;13.80;96.40;;;;;;6058113;23;20102;-79
2024/02/16 08:40:15;;;;;;;3.70;2.22;;;13.90;93.80;;;;;;6057930;23;20527;-78
2024/02/16 08:43:05;;;;;;;2.88;2.25;;;13.90;90.70;;;;;;6061647;23;20030;-77
2024/02/16 08:45:52;;;;;;;6.00;2.35;;;14.20;83.60;;;;;;6066145;23;20023;-78
2024/02/16 08:48:40;;;;;;;3.38;2.40;;;14.70;79.80;;;;;;6049865;23;20027;-77
2024/02/16 08:51:28;;;;;;;5.20;2.20;;;15.40;70.50;;;;;;6059687;23;20027;-78
2024/02/16 08:54:18;;;;;;;3.17;2.00;;;15.50;58.00;;;;;;6067613;23;20050;-78
2024/02/16 08:57:09;;;;;;;6.85;2.30;;;15.60;51.80;;;;;;6058396;23;20035;-79
2024/02/16 08:59:58;;;;;;;5.13;2.15;;;15.60;48.90;;;;;;6036681;23;20031;-79
2024/02/16 09:02:48;;;;;;;7.13;2.08;;;15.50;43.60;;;;;;6057203;23;20319;-78
2024/02/16 09:05:35;;;;;;;7.90;2.25;;;15.50;41.60;;;;;;6056502;23;20027;-77
2024/02/16 09:08:25;;;;;;;3.75;2.00;;;15.60;41.80;;;;;;6054317;23;20409;-77
2024/02/16 09:11:14;;;;;;;3.65;2.10;;;15.70;33.40;;;;;;6055856;23;20027;-79
2024/02/16 09:14:01;;;;;;;4.20;1.95;;;15.50;34.50;;;;;;6037313;23;20041;-80
2024/02/16 09:16:52;;;;;;;2.72;1.92;;;15.80;34.50;;;;;;6057766;23;20041;-78
2024/02/16 09:19:41;;;;;;;3.93;1.97;;;16.00;30.50;;;;;;6039640;23;20026;-78
2024/02/16 09:22:35;;;;;;;5.30;1.83;;;16.00;31.00;;;;;;6071792;23;20006;-77
2024/02/16 09:25:24;;;;;;;2.63;1.70;;;16.60;26.60;;;;;;6040591;23;20531;-78
2024/02/16 09:28:12;;;;;;;6.47;1.70;;;17.30;23.60;;;;;;6036489;23;20037;-81
2024/02/16 09:31:15;;;;;;;3.97;1.50;;;17.60;17.30;;;;;;6058752;23;20832;-78
2024/02/16 09:34:03;;;;;;;4.95;1.88;;;17.40;17.10;;;;;;6053578;23;20086;-80
2024/02/16 09:36:51;;;;;;;3.17;1.25;;;17.70;13.70;;;;;;6057876;23;20034;-80
2024/02/16 09:39:41;;;;;;;4.38;1.70;;;17.60;11.00;;;;;;6040828;23;20027;-81
2024/02/16 09:42:30;;;;;;;3.20;1.70;;;17.00;6.30;;;;;;6046866;23;20170;-80
2024/02/16 09:45:18;;;;;;;2.97;1.80;;;16.50;7.80;;;;;;6061433;23;20038;-79
2024/02/16 09:48:10;;;;;;;6.03;1.90;;;16.20;9.00;;;;;;6035140;23;20353;-78
2024/02/16 09:51:00;;;;;;;4.20;1.80;;;16.20;11.80;;;;;;6059033;23;20304;-78
2024/02/16 09:53:55;;;;;;;3.72;1.90;;;16.90;12.70;;;;;;6053159;23;20023;-78
2024/02/16 09:56:46;;;;;;;4.82;2.05;;;17.10;8.40;;;;;;6060153;23;20447;-77
2024/02/16 09:59:37;;;;;;;8.75;1.77;;;16.90;6.90;;;;;;6072379;23;20082;-76
2024/02/16 10:02:24;;;;;;;5.45;2.00;;;16.50;7.50;;;;;;6049469;23;20031;-77
2024/02/16 10:05:13;;;;;;;4.72;1.88;;;16.20;8.80;;;;;;6069729;23;20086;-77
2024/02/16 10:08:11;;;;;;;3.22;1.98;;;15.80;11.40;;;;;;6059126;23;20045;-79
2024/02/16 10:11:04;;;;;;;4.28;2.20;;;15.60;14.60;;;;;;6067147;23;20078;-79
2024/02/16 10:13:59;;;;;;;3.92;2.10;;;15.40;17.50;;;;;;6065602;23;20030;-79
2024/02/16 10:17:02;;;;;;;3.10;1.98;;;15.40;18.70;;;;;;6062355;23;20090;-79
2024/02/16 10:19:57;;;;;;;4.15;1.95;;;15.30;23.80;;;;;;6062656;23;20030;-80
2024/02/16 10:22:45;;;;;;;6.37;2.40;;;15.30;25.10;;;;;;6057924;23;20037;-78
2024/02/16 10:25:36;;;;;;;7.15;2.10;;;15.20;25.40;;;;;;6059296;23;20023;-79
2024/02/16 10:28:28;;;;;;;3.85;2.40;;;15.20;27.90;;;;;;6057758;23;20058;-77
2024/02/16 10:31:15;;;;;;;6.05;2.70;;;15.20;33.30;;;;;;6047990;23;20041;-77
2024/02/16 10:34:05;;;;;;;4.43;1.95;;;15.10;33.10;;;;;;6079304;23;20059;-78
2024/02/16 10:36:54;;;;;;;6.53;2.47;;;14.90;35.90;;;;;;6064024;23;20027;-78
2024/02/16 10:39:46;;;;;;;6.40;2.28;;;14.70;39.90;;;;;;6069472;23;20022;-77
2024/02/16 10:42:37;;;;;;;4.80;2.38;;;14.60;43.30;;;;;;6067418;23;20030;-76
2024/02/16 10:45:26;;;;;;;3.47;1.93;;;14.60;48.50;;;;;;6050854;23;20294;-78
2024/02/16 10:48:15;;;;;;;5.88;1.90;;;14.60;50.00;;;;;;6068466;23;20114;-78
2024/02/16 10:51:08;;;;;;;6.18;2.40;;;14.50;51.00;;;;;;6040564;23;20031;-78
2024/02/16 10:54:00;;;;;;;7.57;2.25;;;14.60;55.40;;;;;;6060962;23;20071;-81
2024/02/16 10:57:07;;;;;;;6.70;2.63;;;14.70;58.20;;;;;;6069357;23;20027;-79
2024/02/16 10:59:56;;;;;;;5.43;2.20;;;14.80;58.60;;;;;;6061589;23;20613;-78
2024/02/16 11:02:56;;;;;;;6.07;2.40;;;14.90;58.60;;;;;;6057288;23;20615;-78
2024/02/16 11:05:46;;;;;;;4.68;2.60;;;14.90;58.80;;;;;;6058035;23;20027;-78
2024/02/16 11:08:38;;;;;;;6.72;2.33;;;15.00;57.50;;;;;;6058732;23;20361;-76
2024/02/16 11:11:27;;;;;;;7.85;3.30;;;15.10;57.50;;;;;;6057289;23;20055;-77
2024/02/16 11:14:17;;;;;;;10.18;4.22;;;15.60;56.30;;;;;;6035129;23;20107;-78
2024/02/16 11:17:13;;;;;;;10.82;3.85;;;16.20;51.40;;;;;;6035842;23;20034;-81
2024/02/16 11:20:00;;;;;;;7.18;3.13;;;17.20;41.80;;;;;;6059194;23;20023;-79
2024/02/16 11:22:56;;;;;;;8.02;3.17;;;17.30;30.40;;;;;;6059263;23;20084;-79
2024/02/16 11:26:06;;;;;;;5.90;2.58;;;17.50;27.00;;;;;;6061166;23;20465;-78
2024/02/16 11:28:54;;;;;;;8.00;2.20;;;17.60;21.90;;;;;;6019822;23;20023;-79
2024/02/16 11:31:43;;;;;;;5.95;2.17;;;17.60;21.40;;;;;;6056364;23;20099;-79
2024/02/16 11:34:32;;;;;;;8.18;2.00;;;17.90;18.90;;;;;;6055356;23;20378;-79
2024/02/16 11:37:20;;;;;;;6.90;2.42;;;18.20;13.80;;;;;;6054566;23;20031;-79
2024/02/16 11:40:12;;;;;;;3.95;1.63;;;18.60;21.80;;;;;;6057374;23;20055;-78
2024/02/16 11:43:00;;;;;;;4.83;2.10;;;18.60;14.40;;;;;;6057348;23;20027;-79
2024/02/16 11:45:49;;;;;;;3.47;1.80;;;19.00;5.30;;;;;;6038040;23;20345;-79
2024/02/16 11:48:37;;;;;;;3.58;1.90;;;19.20;1.00;;;;;;6046798;23;20038;-80
2024/02/16 11:51:25;;;;;;;4.75;1.90;;;19.00;1.00;;;;;;6046310;23;20030;-79
2024/02/16 11:54:15;;;;;;;3.22;1.52;;;19.20;1.00;;;;;;6057634;23;20031;-80
2024/02/16 11:57:04;;;;;;;6.05;2.13;;;19.50;4.30;;;;;;6055955;23;20113;-78
2024/02/16 11:59:54;;;;;;;6.55;2.35;;;19.40;1.00;;;;;;6066475;23;20031;-79
2024/02/16 12:02:41;;;;;;;6.53;2.08;;;19.20;1.00;;;;;;6065703;23;20051;-79
2024/02/16 12:05:36;;;;;;;4.97;1.85;;;19.10;1.00;;;;;;6063702;23;20058;-80
2024/02/16 12:08:33;;;;;;;6.60;1.90;;;19.00;1.00;;;;;;6038538;23;20117;-79
2024/02/16 12:11:25;;;;;;;5.40;1.65;;;19.20;1.00;;;;;;6057037;23;20416;-78
2024/02/16 12:14:13;;;;;;;5.10;1.63;;;19.40;1.00;;;;;;6060264;23;20057;-78
2024/02/16 12:17:00;;;;;;;5.45;1.88;;;19.60;1.00;;;;;;6061567;23;20035;-80
2024/02/16 12:19:51;;;;;;;5.60;2.08;;;19.60;1.00;;;;;;6056374;23;20034;-82
2024/02/16 12:22:38;;;;;;;5.45;1.80;;;19.10;1.00;;;;;;6056707;23;20027;-78
2024/02/16 12:25:27;;;;;;;4.70;1.95;;;19.00;1.00;;;;;;6055632;23;20031;-77
2024/02/16 12:28:15;;;;;;;7.63;1.80;;;19.00;1.00;;;;;;6057251;23;20033;-80
2024/02/16 12:31:03;;;;;;;4.40;2.05;;;18.60;1.00;;;;;;6058066;23;20031;-79
2024/02/16 12:33:50;;;;;;;5.78;2.00;;;18.40;1.00;;;;;;6043132;23;20023;-79
2024/02/16 12:36:42;;;;;;;7.18;2.13;;;18.50;1.00;;;;;;6065397;23;20027;-78
2024/02/16 12:39:35;;;;;;;7.45;2.10;;;18.40;1.00;;;;;;6051854;23;20410;-78
2024/02/16 12:42:23;;;;;;;6.47;2.25;;;17.70;1.20;;;;;;6062729;23;20102;-79
2024/02/16 12:45:13;;;;;;;8.25;2.67;;;16.90;5.30;;;;;;6067621;23;20030;-78
2024/02/16 12:48:01;;;;;;;6.10;2.30;;;16.50;11.90;;;;;;6062191;23;20113;-80
2024/02/16 12:50:51;;;;;;;4.63;2.30;;;16.10;20.30;;;;;;6057755;23;20078;-79
2024/02/16 12:53:41;;;;;;;7.10;2.08;;;16.10;22.40;;;;;;6057186;23;20489;-78
2024/02/16 12:56:30;;;;;;;5.40;2.00;;;16.00;32.10;;;;;;6038118;23;20027;-78
2024/02/16 12:59:18;;;;;;;6.15;2.10;;;15.90;30.70;;;;;;6054519;23;20041;-81
2024/02/16 13:02:06;;;;;;;6.43;2.40;;;15.90;34.60;;;;;;6055688;23;20030;-78
2024/02/16 13:04:54;;;;;;;6.40;2.53;;;16.10;38.20;;;;;;6034752;23;20022;-81
2024/02/16 13:07:42;;;;;;;6.78;2.38;;;16.10;35.90;;;;;;6035914;23;20350;-80
2024/02/16 13:10:36;;;;;;;5.85;2.17;;;16.10;35.00;;;;;;6056558;23;20027;-78
2024/02/16 13:13:27;;;;;;;11.52;2.20;;;16.00;37.00;;;;;;6055283;23;20034;-77
2024/02/16 13:16:14;;;;;;;8.20;2.03;;;16.10;43.80;;;;;;6057112;23;20134;-78
2024/02/16 13:19:03;;;;;;;9.30;2.60;;;16.20;41.70;;;;;;6016770;23;20034;-80
2024/02/16 13:21:52;;;;;;;6.43;2.10;;;16.10;42.60;;;;;;6055164;23;20040;-80
2024/02/16 13:24:42;;;;;;;6.13;2.47;;;16.30;44.30;;;;;;6065186;23;20038;-80
2024/02/16 13:27:30;;;;;;;4.88;2.25;;;16.10;44.40;;;;;;6025798;23;20665;-80
2024/02/16 13:30:20;;;;;;;5.32;2.17;;;16.10;48.30;;;;;;6062074;23;20158;-78
2024/02/16 13:33:09;;;;;;;5.40;2.35;;;16.10;51.70;;;;;;6057140;23;20035;-81
2024/02/16 13:35:57;;;;;;;4.72;2.40;;;16.00;64.70;;;;;;6071268;23;20110;-79
2024/02/16 13:38:45;;;;;;;10.90;2.65;;;15.90;56.20;;;;;;6066730;23;20019;-78
2024/02/16 13:41:33;;;;;;;7.15;2.10;;;15.90;66.80;;;;;;6075918;23;20030;-77
2024/02/16 13:44:21;;;;;;;5.88;2.42;;;15.90;63.10;;;;;;6077115;23;20023;-76
2024/02/16 13:47:11;;;;;;;7.18;2.53;;;15.90;71.40;;;;;;6079829;23;20062;-77
2024/02/16 13:50:02;;;;;;;6.38;2.08;;;15.80;69.40;;;;;;6081676;23;20305;-77
2024/02/16 13:52:50;;;;;;;4.15;2.25;;;15.80;68.80;;;;;;6060296;23;20082;-78
2024/02/16 13:55:39;;;;;;;4.38;2.22;;;15.90;71.50;;;;;;6073959;23;20057;-79
2024/02/16 13:58:27;;;;;;;4.45;2.30;;;15.90;74.30;;;;;;6081871;23;20030;-77
2024/02/16 14:01:17;;;;;;;9.15;3.65;;;16.00;81.00;;;;;;6080509;23;20038;-77
2024/02/16 14:04:04;;;;;;;6.47;2.40;;;16.10;83.20;;;;;;6070913;23;20061;-80
2024/02/16 14:06:53;;;;;;;12.07;3.90;;;16.30;78.80;;;;;;6059205;23;20027;-81
2024/02/16 14:09:42;;;;;;;6.95;2.20;;;16.40;75.70;;;;;;6059996;23;20481;-81
2024/02/16 14:12:31;;;;;;;5.50;2.30;;;16.30;72.80;;;;;;6065098;23;20046;-78
2024/02/16 14:15:18;;;;;;;8.80;2.08;;;16.20;77.20;;;;;;6070505;23;20125;-81
2024/02/16 14:18:07;;;;;;;7.65;2.15;;;16.20;77.10;;;;;;6062967;23;20027;-79
2024/02/16 14:21:04;;;;;;;8.38;2.42;;;16.20;78.60;;;;;;6059492;23;20022;-79
2024/02/16 14:23:53;;;;;;;4.47;2.30;;;16.00;80.60;;;;;;6055464;23;20026;-80
2024/02/16 14:26:42;;;;;;;6.35;1.92;;;16.00;84.10;;;;;;6024252;23;20026;-78
2024/02/16 14:29:30;;;;;;;6.82;2.10;;;16.00;82.60;;;;;;6059458;23;20074;-80
2024/02/16 14:32:17;;;;;;;12.40;2.90;;;16.00;87.00;;;;;;6059299;23;20038;-81
2024/02/16 14:35:06;;;;;;;10.35;2.25;;;16.10;85.10;;;;;;6059020;23;20034;-80
2024/02/16 14:37:54;;;;;;;5.07;2.33;;;16.20;83.80;;;;;;6039007;23;20384;-78
2024/02/16 14:40:43;;;;;;;10.57;2.42;;;16.20;83.30;;;;;;6061770;23;20038;-77
2024/02/16 14:43:33;;;;;;;5.10;1.95;;;16.20;83.40;;;;;;6065094;23;20033;-78
2024/02/16 14:46:25;;;;;;;10.65;2.30;;;16.10;81.30;;;;;;6067548;23;20022;-79